sensor_id;sensor_type;location;lat;lon;timestamp;P1;durP1;ratioP1;P2;durP2;ratioP2
4023;SDS011;2026;51.002;13.668;2022-12-18T00:03:42;59.43;;;25.57;;
4023;SDS011;2026;51.002;13.668;2022-12-18T00:08:48;57.63;;;25.87;;
4023;SDS011;2026;51.002;13.668;2022-12-18T00:13:52;46.97;;;23.17;;
4023;SDS011;2026;51.002;13.668;2022-12-18T00:18:57;52.10;;;22.70;;
4023;SDS011;2026;51.002;13.668;2022-12-18T00:24:00;47.10;;;24.43;;
4023;SDS011;2026;51.002;13.668;2022-12-18T00:29:05;61.67;;;23.93;;
4023;SDS011;2026;51.002;13.668;2022-12-18T00:34:10;50.20;;;21.27;;
4023;SDS011;2026;51.002;13.668;2022-12-18T00:39:14;51.93;;;21.63;;
4023;SDS011;2026;51.002;13.668;2022-12-18T00:44:20;51.33;;;22.53;;
4023;SDS011;2026;51.002;13.668;2022-12-18T00:49:23;51.70;;;21.00;;
4023;SDS011;2026;51.002;13.668;2022-12-18T00:54:25;52.97;;;21.90;;
4023;SDS011;2026;51.002;13.668;2022-12-18T00:59:30;46.60;;;20.50;;
4023;SDS011;2026;51.002;13.668;2022-12-18T01:04:33;44.40;;;20.90;;
4023;SDS011;2026;51.002;13.668;2022-12-18T01:09:37;37.57;;;17.10;;
4023;SDS011;2026;51.002;13.668;2022-12-18T01:14:41;43.53;;;18.10;;
4023;SDS011;2026;51.002;13.668;2022-12-18T01:19:44;44.67;;;18.83;;
4023;SDS011;2026;51.002;13.668;2022-12-18T01:24:47;37.63;;;17.53;;
4023;SDS011;2026;51.002;13.668;2022-12-18T01:29:52;36.47;;;16.40;;
4023;SDS011;2026;51.002;13.668;2022-12-18T01:34:55;35.23;;;15.87;;
4023;SDS011;2026;51.002;13.668;2022-12-18T01:39:58;38.23;;;14.40;;
4023;SDS011;2026;51.002;13.668;2022-12-18T01:45:04;33.50;;;15.20;;
4023;SDS011;2026;51.002;13.668;2022-12-18T01:50:22;36.13;;;14.37;;
4023;SDS011;2026;51.002;13.668;2022-12-18T01:55:28;29.90;;;13.20;;
4023;SDS011;2026;51.002;13.668;2022-12-18T02:00:35;33.50;;;14.93;;
4023;SDS011;2026;51.002;13.668;2022-12-18T02:05:40;36.27;;;15.00;;
4023;SDS011;2026;51.002;13.668;2022-12-18T02:10:53;31.70;;;13.20;;
4023;SDS011;2026;51.002;13.668;2022-12-18T02:16:08;29.27;;;13.23;;
4023;SDS011;2026;51.002;13.668;2022-12-18T02:21:20;28.03;;;14.40;;
4023;SDS011;2026;51.002;13.668;2022-12-18T02:26:33;32.00;;;14.33;;
4023;SDS011;2026;51.002;13.668;2022-12-18T02:31:40;28.63;;;13.37;;
4023;SDS011;2026;51.002;13.668;2022-12-18T02:36:48;25.27;;;11.13;;
4023;SDS011;2026;51.002;13.668;2022-12-18T02:41:55;28.47;;;11.87;;
4023;SDS011;2026;51.002;13.668;2022-12-18T02:47:00;31.77;;;11.90;;
4023;SDS011;2026;51.002;13.668;2022-12-18T02:52:05;25.40;;;12.03;;
4023;SDS011;2026;51.002;13.668;2022-12-18T02:57:18;27.10;;;13.33;;
4023;SDS011;2026;51.002;13.668;2022-12-18T03:02:26;27.37;;;12.60;;
4023;SDS011;2026;51.002;13.668;2022-12-18T03:07:37;31.20;;;11.97;;
4023;SDS011;2026;51.002;13.668;2022-12-18T03:12:49;25.60;;;11.77;;
4023;SDS011;2026;51.002;13.668;2022-12-18T03:17:57;25.17;;;12.30;;
4023;SDS011;2026;51.002;13.668;2022-12-18T03:23:07;26.40;;;11.90;;
4023;SDS011;2026;51.002;13.668;2022-12-18T03:28:21;30.40;;;11.40;;
4023;SDS011;2026;51.002;13.668;2022-12-18T03:33:34;22.80;;;11.80;;
4023;SDS011;2026;51.002;13.668;2022-12-18T03:38:42;24.23;;;10.20;;
4023;SDS011;2026;51.002;13.668;2022-12-18T03:43:48;27.90;;;10.97;;
4023;SDS011;2026;51.002;13.668;2022-12-18T03:48:58;27.00;;;10.77;;
4023;SDS011;2026;51.002;13.668;2022-12-18T03:54:06;22.30;;;10.60;;
4023;SDS011;2026;51.002;13.668;2022-12-18T03:59:20;26.37;;;10.07;;
4023;SDS011;2026;51.002;13.668;2022-12-18T04:04:27;26.57;;;11.40;;
4023;SDS011;2026;51.002;13.668;2022-12-18T04:09:35;19.23;;;10.00;;
4023;SDS011;2026;51.002;13.668;2022-12-18T04:14:44;21.03;;;9.30;;
4023;SDS011;2026;51.002;13.668;2022-12-18T04:19:47;24.57;;;11.27;;
4023;SDS011;2026;51.002;13.668;2022-12-18T04:24:50;18.87;;;8.73;;
4023;SDS011;2026;51.002;13.668;2022-12-18T04:30:05;23.93;;;11.23;;
4023;SDS011;2026;51.002;13.668;2022-12-18T04:35:09;23.03;;;10.50;;
4023;SDS011;2026;51.002;13.668;2022-12-18T04:40:18;22.47;;;9.40;;
4023;SDS011;2026;51.002;13.668;2022-12-18T04:45:23;24.10;;;10.20;;
4023;SDS011;2026;51.002;13.668;2022-12-18T04:50:27;20.37;;;9.50;;
4023;SDS011;2026;51.002;13.668;2022-12-18T04:55:30;19.03;;;9.20;;
4023;SDS011;2026;51.002;13.668;2022-12-18T05:00:34;20.47;;;9.47;;
4023;SDS011;2026;51.002;13.668;2022-12-18T05:05:37;20.53;;;8.83;;
4023;SDS011;2026;51.002;13.668;2022-12-18T05:10:40;23.23;;;9.83;;
4023;SDS011;2026;51.002;13.668;2022-12-18T05:15:50;17.07;;;7.77;;
4023;SDS011;2026;51.002;13.668;2022-12-18T05:20:54;18.43;;;8.80;;
4023;SDS011;2026;51.002;13.668;2022-12-18T05:25:57;23.47;;;9.77;;
4023;SDS011;2026;51.002;13.668;2022-12-18T05:31:03;23.57;;;9.07;;
4023;SDS011;2026;51.002;13.668;2022-12-18T05:36:07;16.53;;;7.87;;
4023;SDS011;2026;51.002;13.668;2022-12-18T05:41:12;18.70;;;8.57;;
4023;SDS011;2026;51.002;13.668;2022-12-18T05:46:17;24.00;;;9.77;;
4023;SDS011;2026;51.002;13.668;2022-12-18T05:51:21;19.67;;;9.20;;
4023;SDS011;2026;51.002;13.668;2022-12-18T05:56:24;17.13;;;7.87;;
4023;SDS011;2026;51.002;13.668;2022-12-18T06:01:29;13.43;;;7.60;;
4023;SDS011;2026;51.002;13.668;2022-12-18T06:06:32;17.60;;;8.17;;
4023;SDS011;2026;51.002;13.668;2022-12-18T06:11:36;17.30;;;7.73;;
4023;SDS011;2026;51.002;13.668;2022-12-18T06:16:41;16.57;;;7.67;;
4023;SDS011;2026;51.002;13.668;2022-12-18T06:21:44;21.63;;;7.97;;
4023;SDS011;2026;51.002;13.668;2022-12-18T06:26:47;14.93;;;7.47;;
4023;SDS011;2026;51.002;13.668;2022-12-18T06:31:51;18.90;;;8.97;;
4023;SDS011;2026;51.002;13.668;2022-12-18T06:36:54;17.03;;;8.07;;
4023;SDS011;2026;51.002;13.668;2022-12-18T06:41:57;18.43;;;8.40;;
4023;SDS011;2026;51.002;13.668;2022-12-18T06:47:01;18.50;;;8.33;;
4023;SDS011;2026;51.002;13.668;2022-12-18T06:52:04;15.03;;;8.87;;
4023;SDS011;2026;51.002;13.668;2022-12-18T06:57:07;13.30;;;7.10;;
4023;SDS011;2026;51.002;13.668;2022-12-18T07:02:12;22.30;;;8.43;;
4023;SDS011;2026;51.002;13.668;2022-12-18T07:07:15;17.13;;;8.03;;
4023;SDS011;2026;51.002;13.668;2022-12-18T07:12:18;24.03;;;10.03;;
4023;SDS011;2026;51.002;13.668;2022-12-18T07:17:22;21.30;;;10.07;;
4023;SDS011;2026;51.002;13.668;2022-12-18T07:22:25;20.40;;;11.10;;
4023;SDS011;2026;51.002;13.668;2022-12-18T07:27:28;21.40;;;9.50;;
4023;SDS011;2026;51.002;13.668;2022-12-18T07:32:33;25.37;;;10.73;;
4023;SDS011;2026;51.002;13.668;2022-12-18T07:37:36;25.43;;;11.60;;
4023;SDS011;2026;51.002;13.668;2022-12-18T07:42:38;27.43;;;11.77;;
4023;SDS011;2026;51.002;13.668;2022-12-18T07:47:43;26.07;;;12.50;;
4023;SDS011;2026;51.002;13.668;2022-12-18T07:52:47;29.63;;;13.13;;
4023;SDS011;2026;51.002;13.668;2022-12-18T07:57:50;31.13;;;13.20;;
4023;SDS011;2026;51.002;13.668;2022-12-18T08:03:01;24.23;;;11.63;;
4023;SDS011;2026;51.002;13.668;2022-12-18T08:08:04;30.70;;;14.60;;
4023;SDS011;2026;51.002;13.668;2022-12-18T08:13:07;41.47;;;18.63;;
4023;SDS011;2026;51.002;13.668;2022-12-18T08:18:11;36.83;;;17.97;;
4023;SDS011;2026;51.002;13.668;2022-12-18T08:23:15;33.00;;;15.67;;
4023;SDS011;2026;51.002;13.668;2022-12-18T08:28:17;38.47;;;18.40;;
4023;SDS011;2026;51.002;13.668;2022-12-18T08:33:22;37.33;;;18.30;;
4023;SDS011;2026;51.002;13.668;2022-12-18T08:38:25;38.07;;;17.03;;
4023;SDS011;2026;51.002;13.668;2022-12-18T08:43:28;42.80;;;19.00;;
4023;SDS011;2026;51.002;13.668;2022-12-18T08:48:51;39.27;;;19.40;;
4023;SDS011;2026;51.002;13.668;2022-12-18T08:53:55;54.90;;;29.43;;
4023;SDS011;2026;51.002;13.668;2022-12-18T08:58:58;52.93;;;30.10;;
4023;SDS011;2026;51.002;13.668;2022-12-18T09:04:03;54.80;;;29.13;;
4023;SDS011;2026;51.002;13.668;2022-12-18T09:09:08;66.13;;;31.07;;
4023;SDS011;2026;51.002;13.668;2022-12-18T09:14:12;60.07;;;26.60;;
4023;SDS011;2026;51.002;13.668;2022-12-18T09:19:16;49.57;;;24.07;;
4023;SDS011;2026;51.002;13.668;2022-12-18T09:24:19;32.03;;;16.50;;
4023;SDS011;2026;51.002;13.668;2022-12-18T09:29:22;44.20;;;18.17;;
4023;SDS011;2026;51.002;13.668;2022-12-18T09:34:26;28.70;;;15.83;;
4023;SDS011;2026;51.002;13.668;2022-12-18T09:39:29;28.10;;;14.00;;
4023;SDS011;2026;51.002;13.668;2022-12-18T09:44:34;21.10;;;9.83;;
4023;SDS011;2026;51.002;13.668;2022-12-18T09:49:48;23.93;;;9.87;;
4023;SDS011;2026;51.002;13.668;2022-12-18T09:54:54;23.57;;;10.87;;
4023;SDS011;2026;51.002;13.668;2022-12-18T10:00:03;21.50;;;10.20;;
4023;SDS011;2026;51.002;13.668;2022-12-18T10:05:17;19.47;;;9.43;;
4023;SDS011;2026;51.002;13.668;2022-12-18T10:10:32;30.37;;;12.30;;
4023;SDS011;2026;51.002;13.668;2022-12-18T10:15:43;24.53;;;12.17;;
4023;SDS011;2026;51.002;13.668;2022-12-18T10:20:56;34.03;;;15.77;;
4023;SDS011;2026;51.002;13.668;2022-12-18T10:26:09;41.03;;;19.50;;
4023;SDS011;2026;51.002;13.668;2022-12-18T10:31:15;38.63;;;18.47;;
4023;SDS011;2026;51.002;13.668;2022-12-18T10:36:22;39.40;;;19.63;;
4023;SDS011;2026;51.002;13.668;2022-12-18T10:41:26;40.77;;;20.40;;
4023;SDS011;2026;51.002;13.668;2022-12-18T10:46:32;43.67;;;20.07;;
4023;SDS011;2026;51.002;13.668;2022-12-18T10:51:36;32.77;;;17.03;;
4023;SDS011;2026;51.002;13.668;2022-12-18T10:56:40;29.83;;;15.17;;
4023;SDS011;2026;51.002;13.668;2022-12-18T11:01:45;302.63;;;65.97;;
4023;SDS011;2026;51.002;13.668;2022-12-18T11:06:55;32.43;;;14.10;;
4023;SDS011;2026;51.002;13.668;2022-12-18T11:12:01;29.17;;;13.53;;
4023;SDS011;2026;51.002;13.668;2022-12-18T11:17:16;22.20;;;12.03;;
4023;SDS011;2026;51.002;13.668;2022-12-18T11:22:28;24.20;;;12.40;;
4023;SDS011;2026;51.002;13.668;2022-12-18T11:27:33;21.90;;;12.37;;
4023;SDS011;2026;51.002;13.668;2022-12-18T11:32:36;34.50;;;16.10;;
4023;SDS011;2026;51.002;13.668;2022-12-18T11:37:43;28.03;;;13.67;;
4023;SDS011;2026;51.002;13.668;2022-12-18T11:42:51;32.50;;;14.63;;
4023;SDS011;2026;51.002;13.668;2022-12-18T11:48:03;31.47;;;15.67;;
4023;SDS011;2026;51.002;13.668;2022-12-18T11:53:16;42.17;;;18.23;;
4023;SDS011;2026;51.002;13.668;2022-12-18T11:58:24;35.57;;;16.07;;
4023;SDS011;2026;51.002;13.668;2022-12-18T12:03:39;31.07;;;16.20;;
4023;SDS011;2026;51.002;13.668;2022-12-18T12:09:09;36.67;;;14.93;;
4023;SDS011;2026;51.002;13.668;2022-12-18T12:19:48;40.43;;;18.80;;
4023;SDS011;2026;51.002;13.668;2022-12-18T12:25:01;35.23;;;17.30;;
4023;SDS011;2026;51.002;13.668;2022-12-18T12:30:18;43.70;;;18.13;;
4023;SDS011;2026;51.002;13.668;2022-12-18T12:35:31;43.47;;;18.33;;
4023;SDS011;2026;51.002;13.668;2022-12-18T12:40:47;37.67;;;17.47;;
4023;SDS011;2026;51.002;13.668;2022-12-18T12:46:03;40.83;;;17.73;;
4023;SDS011;2026;51.002;13.668;2022-12-18T12:51:10;45.07;;;19.17;;
4023;SDS011;2026;51.002;13.668;2022-12-18T12:56:19;39.13;;;18.10;;
4023;SDS011;2026;51.002;13.668;2022-12-18T13:01:25;45.67;;;19.20;;
4023;SDS011;2026;51.002;13.668;2022-12-18T13:06:39;44.03;;;18.07;;
4023;SDS011;2026;51.002;13.668;2022-12-18T13:11:48;44.30;;;18.23;;
4023;SDS011;2026;51.002;13.668;2022-12-18T13:17:14;40.20;;;19.50;;
4023;SDS011;2026;51.002;13.668;2022-12-18T13:22:31;43.13;;;18.10;;
4023;SDS011;2026;51.002;13.668;2022-12-18T13:27:54;45.47;;;18.40;;
4023;SDS011;2026;51.002;13.668;2022-12-18T13:39:15;78.40;;;31.50;;
4023;SDS011;2026;51.002;13.668;2022-12-18T13:44:47;73.87;;;31.20;;
4023;SDS011;2026;51.002;13.668;2022-12-18T13:49:51;62.43;;;27.03;;
4023;SDS011;2026;51.002;13.668;2022-12-18T13:54:55;56.27;;;23.77;;
4023;SDS011;2026;51.002;13.668;2022-12-18T14:00:19;48.00;;;21.90;;
4023;SDS011;2026;51.002;13.668;2022-12-18T14:05:28;48.13;;;21.10;;
4023;SDS011;2026;51.002;13.668;2022-12-18T14:10:32;39.17;;;18.67;;
4023;SDS011;2026;51.002;13.668;2022-12-18T14:15:51;38.33;;;17.93;;
4023;SDS011;2026;51.002;13.668;2022-12-18T14:20:55;45.93;;;23.70;;
4023;SDS011;2026;51.002;13.668;2022-12-18T14:26:02;46.43;;;22.50;;
4023;SDS011;2026;51.002;13.668;2022-12-18T14:31:24;52.13;;;22.77;;
4023;SDS011;2026;51.002;13.668;2022-12-18T14:36:29;40.80;;;18.77;;
4023;SDS011;2026;51.002;13.668;2022-12-18T14:41:32;38.60;;;20.50;;
4023;SDS011;2026;51.002;13.668;2022-12-18T14:46:37;36.10;;;15.90;;
4023;SDS011;2026;51.002;13.668;2022-12-18T14:51:42;35.43;;;15.57;;
4023;SDS011;2026;51.002;13.668;2022-12-18T14:56:51;35.10;;;15.40;;
4023;SDS011;2026;51.002;13.668;2022-12-18T15:02:01;30.67;;;14.93;;
4023;SDS011;2026;51.002;13.668;2022-12-18T15:07:09;34.63;;;17.20;;
4023;SDS011;2026;51.002;13.668;2022-12-18T15:12:21;36.40;;;16.40;;
4023;SDS011;2026;51.002;13.668;2022-12-18T15:17:29;41.30;;;19.70;;
4023;SDS011;2026;51.002;13.668;2022-12-18T15:22:33;42.80;;;20.83;;
4023;SDS011;2026;51.002;13.668;2022-12-18T15:27:38;37.70;;;16.57;;
4023;SDS011;2026;51.002;13.668;2022-12-18T15:32:42;33.43;;;14.20;;
4023;SDS011;2026;51.002;13.668;2022-12-18T15:37:46;33.53;;;15.13;;
4023;SDS011;2026;51.002;13.668;2022-12-18T15:42:50;33.93;;;16.40;;
4023;SDS011;2026;51.002;13.668;2022-12-18T15:48:17;35.13;;;14.07;;
4023;SDS011;2026;51.002;13.668;2022-12-18T15:53:23;37.00;;;17.93;;
4023;SDS011;2026;51.002;13.668;2022-12-18T15:58:27;41.33;;;20.33;;
4023;SDS011;2026;51.002;13.668;2022-12-18T16:03:32;40.57;;;18.40;;
4023;SDS011;2026;51.002;13.668;2022-12-18T16:08:35;46.37;;;19.20;;
4023;SDS011;2026;51.002;13.668;2022-12-18T16:13:41;40.07;;;19.97;;
4023;SDS011;2026;51.002;13.668;2022-12-18T16:18:45;36.00;;;18.13;;
4023;SDS011;2026;51.002;13.668;2022-12-18T16:23:48;44.60;;;19.20;;
4023;SDS011;2026;51.002;13.668;2022-12-18T16:28:51;33.67;;;16.97;;
4023;SDS011;2026;51.002;13.668;2022-12-18T16:39:25;45.90;;;21.90;;
4023;SDS011;2026;51.002;13.668;2022-12-18T16:44:28;34.53;;;15.47;;
4023;SDS011;2026;51.002;13.668;2022-12-18T16:49:31;42.17;;;19.30;;
4023;SDS011;2026;51.002;13.668;2022-12-18T16:54:36;43.40;;;20.73;;
4023;SDS011;2026;51.002;13.668;2022-12-18T16:59:39;51.00;;;21.70;;
4023;SDS011;2026;51.002;13.668;2022-12-18T17:04:43;65.03;;;28.70;;
4023;SDS011;2026;51.002;13.668;2022-12-18T17:09:48;68.47;;;31.60;;
4023;SDS011;2026;51.002;13.668;2022-12-18T17:14:51;52.67;;;25.90;;
4023;SDS011;2026;51.002;13.668;2022-12-18T17:19:54;58.33;;;25.17;;
4023;SDS011;2026;51.002;13.668;2022-12-18T17:24:59;53.23;;;25.00;;
4023;SDS011;2026;51.002;13.668;2022-12-18T17:30:02;53.17;;;24.67;;
4023;SDS011;2026;51.002;13.668;2022-12-18T17:35:05;53.30;;;25.90;;
4023;SDS011;2026;51.002;13.668;2022-12-18T17:40:10;54.73;;;24.27;;
4023;SDS011;2026;51.002;13.668;2022-12-18T17:45:13;47.47;;;25.10;;
4023;SDS011;2026;51.002;13.668;2022-12-18T17:50:16;50.80;;;24.10;;
4023;SDS011;2026;51.002;13.668;2022-12-18T17:55:21;50.33;;;23.60;;
4023;SDS011;2026;51.002;13.668;2022-12-18T18:00:24;42.33;;;19.13;;
4023;SDS011;2026;51.002;13.668;2022-12-18T18:05:27;46.27;;;19.57;;
4023;SDS011;2026;51.002;13.668;2022-12-18T18:10:34;53.53;;;23.33;;
4023;SDS011;2026;51.002;13.668;2022-12-18T18:15:38;59.57;;;24.97;;
4023;SDS011;2026;51.002;13.668;2022-12-18T18:20:41;68.20;;;28.40;;
4023;SDS011;2026;51.002;13.668;2022-12-18T18:25:45;52.53;;;23.60;;
4023;SDS011;2026;51.002;13.668;2022-12-18T18:30:50;44.87;;;20.80;;
4023;SDS011;2026;51.002;13.668;2022-12-18T18:35:53;41.00;;;19.37;;
4023;SDS011;2026;51.002;13.668;2022-12-18T18:40:58;37.00;;;17.50;;
4023;SDS011;2026;51.002;13.668;2022-12-18T18:46:02;43.03;;;20.30;;
4023;SDS011;2026;51.002;13.668;2022-12-18T18:51:07;43.50;;;18.67;;
4023;SDS011;2026;51.002;13.668;2022-12-18T18:56:16;40.97;;;20.80;;
4023;SDS011;2026;51.002;13.668;2022-12-18T19:01:41;48.90;;;22.30;;
4023;SDS011;2026;51.002;13.668;2022-12-18T19:06:45;62.60;;;30.40;;
4023;SDS011;2026;51.002;13.668;2022-12-18T19:11:51;52.00;;;26.27;;
4023;SDS011;2026;51.002;13.668;2022-12-18T19:17:11;66.87;;;28.10;;
4023;SDS011;2026;51.002;13.668;2022-12-18T19:22:15;61.80;;;27.37;;
4023;SDS011;2026;51.002;13.668;2022-12-18T19:27:20;58.73;;;30.60;;
4023;SDS011;2026;51.002;13.668;2022-12-18T19:32:24;71.77;;;33.13;;
4023;SDS011;2026;51.002;13.668;2022-12-18T19:37:27;61.03;;;30.20;;
4023;SDS011;2026;51.002;13.668;2022-12-18T19:42:31;87.13;;;39.53;;
4023;SDS011;2026;51.002;13.668;2022-12-18T19:47:36;60.57;;;32.57;;
4023;SDS011;2026;51.002;13.668;2022-12-18T19:52:39;68.93;;;31.10;;
4023;SDS011;2026;51.002;13.668;2022-12-18T19:57:43;65.20;;;28.37;;
4023;SDS011;2026;51.002;13.668;2022-12-18T20:02:46;54.00;;;25.50;;
4023;SDS011;2026;51.002;13.668;2022-12-18T20:07:49;49.17;;;23.20;;
4023;SDS011;2026;51.002;13.668;2022-12-18T20:12:54;57.40;;;27.23;;
4023;SDS011;2026;51.002;13.668;2022-12-18T20:17:58;57.87;;;28.27;;
4023;SDS011;2026;51.002;13.668;2022-12-18T20:23:02;49.20;;;26.00;;
4023;SDS011;2026;51.002;13.668;2022-12-18T20:28:06;56.47;;;28.20;;
4023;SDS011;2026;51.002;13.668;2022-12-18T20:33:09;62.93;;;28.83;;
4023;SDS011;2026;51.002;13.668;2022-12-18T20:38:12;51.07;;;22.83;;
4023;SDS011;2026;51.002;13.668;2022-12-18T20:43:17;53.30;;;22.90;;
4023;SDS011;2026;51.002;13.668;2022-12-18T20:48:20;46.53;;;23.60;;
4023;SDS011;2026;51.002;13.668;2022-12-18T20:53:27;45.10;;;22.20;;
4023;SDS011;2026;51.002;13.668;2022-12-18T20:58:31;50.10;;;26.90;;
4023;SDS011;2026;51.002;13.668;2022-12-18T21:03:35;46.57;;;21.17;;
4023;SDS011;2026;51.002;13.668;2022-12-18T21:08:38;45.57;;;19.93;;
4023;SDS011;2026;51.002;13.668;2022-12-18T21:13:42;45.43;;;22.30;;
4023;SDS011;2026;51.002;13.668;2022-12-18T21:18:45;40.70;;;19.27;;
4023;SDS011;2026;51.002;13.668;2022-12-18T21:23:49;36.00;;;17.97;;
4023;SDS011;2026;51.002;13.668;2022-12-18T21:28:53;36.87;;;16.87;;
4023;SDS011;2026;51.002;13.668;2022-12-18T21:33:58;35.33;;;18.03;;
4023;SDS011;2026;51.002;13.668;2022-12-18T21:39:02;36.43;;;16.00;;
4023;SDS011;2026;51.002;13.668;2022-12-18T21:44:07;34.73;;;16.00;;
4023;SDS011;2026;51.002;13.668;2022-12-18T21:49:12;32.67;;;14.20;;
4023;SDS011;2026;51.002;13.668;2022-12-18T21:54:18;25.63;;;12.93;;
4023;SDS011;2026;51.002;13.668;2022-12-18T21:59:23;26.80;;;13.30;;
4023;SDS011;2026;51.002;13.668;2022-12-18T22:04:27;24.40;;;11.40;;
4023;SDS011;2026;51.002;13.668;2022-12-18T22:09:31;29.90;;;12.80;;
4023;SDS011;2026;51.002;13.668;2022-12-18T22:14:35;22.43;;;9.93;;
4023;SDS011;2026;51.002;13.668;2022-12-18T22:19:38;25.90;;;11.20;;
4023;SDS011;2026;51.002;13.668;2022-12-18T22:24:43;26.00;;;10.83;;
4023;SDS011;2026;51.002;13.668;2022-12-18T22:29:48;26.70;;;11.00;;
4023;SDS011;2026;51.002;13.668;2022-12-18T22:35:06;25.23;;;10.83;;
4023;SDS011;2026;51.002;13.668;2022-12-18T22:40:16;20.83;;;9.97;;
4023;SDS011;2026;51.002;13.668;2022-12-18T22:45:26;17.57;;;9.80;;
4023;SDS011;2026;51.002;13.668;2022-12-18T22:50:30;21.27;;;9.50;;
4023;SDS011;2026;51.002;13.668;2022-12-18T22:55:34;17.93;;;9.17;;
4023;SDS011;2026;51.002;13.668;2022-12-18T23:00:38;20.00;;;8.77;;
4023;SDS011;2026;51.002;13.668;2022-12-18T23:05:41;22.50;;;10.30;;
4023;SDS011;2026;51.002;13.668;2022-12-18T23:10:45;24.00;;;10.20;;
4023;SDS011;2026;51.002;13.668;2022-12-18T23:15:49;22.27;;;10.80;;
4023;SDS011;2026;51.002;13.668;2022-12-18T23:20:52;21.73;;;9.83;;
4023;SDS011;2026;51.002;13.668;2022-12-18T23:25:59;20.00;;;9.93;;
4023;SDS011;2026;51.002;13.668;2022-12-18T23:31:06;25.73;;;10.73;;
4023;SDS011;2026;51.002;13.668;2022-12-18T23:36:10;22.27;;;11.10;;
4023;SDS011;2026;51.002;13.668;2022-12-18T23:41:14;25.87;;;11.60;;
4023;SDS011;2026;51.002;13.668;2022-12-18T23:46:20;23.27;;;9.80;;
4023;SDS011;2026;51.002;13.668;2022-12-18T23:51:26;27.73;;;13.10;;
4023;SDS011;2026;51.002;13.668;2022-12-18T23:56:30;25.33;;;11.47;;
